Tiempo atmosférico en la estación meteorológica de Cabo Busto, Asturias (63 m.)



Fecha
DESCASC
Temp. máxima en grados centígrados (hora)
DESCASC
Temp. mínima en grados centígrados (hora)
DESCASC
Temp. media en grados centígrados
DESCASC
Racha de viento máxima en m/sg (hora)
DESCASC
Velocidad máxima media en intervalos de 10 minutos(hora)
DESCASC
Precipitaciones diarias en mm
DESCASC
Precipitaciones de 00:00 a 06:00 en mm
DESCASC
Precipitaciones de 06:00 a 12:00 en mm
DESCASC
Precipitaciones de 12:00 a 18:00 en mm
DESCASC
Precipitaciones de 18:00 a 24:00 en mm
DESCASC
20-09-2020 -- (--) -- (--) -- 5.28 (08:20) 4.17 (04:30) 0 0 0 0 0
19-09-2020 -- (--) -- (--) -- 9.44 (19:00) 7.22 (19:00) 0.2 0 0 0.2 0
18-09-2020 -- (--) -- (--) -- 7.5 (00:20) 6.11 (00:20) 2.6 1.8 0.2 0.6 0
17-09-2020 -- (--) -- (--) -- 18.33 (22:40) 13.33 (22:30) 1.6 0 0.4 0 1.2
16-09-2020 -- (--) -- (--) -- 8.33 (21:40) 5 (21:40) 0 0 0 0 0
15-09-2020 -- (--) -- (--) -- 10 (20:10) 6.11 (20:00) 1.6 1.6 0 0 0
14-09-2020 -- (--) -- (--) -- 8.33 (20:00) 5.28 (20:00) 0.8 0 0 0.2 0.6
13-09-2020 -- (--) -- (--) -- 7.78 (23:10) 6.11 (23:10) 0 0 0 0 0
12-09-2020 -- (--) -- (--) -- 11.94 (19:40) 8.61 (19:30) 0 0 0 0 0
11-09-2020 -- (--) -- (--) -- 9.72 (18:50) 6.67 (21:30) 0 0 0 0 0
10-09-2020 -- (--) -- (--) -- 8.33 (17:40) 5.83 (20:30) 0 0 0 0 0
09-09-2020 -- (--) -- (--) -- 8.89 (18:10) 5.83 (18:20) 0 0 0 0 0
08-09-2020 -- (--) -- (--) -- 14.72 (16:20) 9.72 (14:40) 0 0 0 0 0
07-09-2020 -- (--) -- (--) -- 13.33 (19:00) 8.61 (17:10) 0 0 0 0 0
06-09-2020 -- (--) -- (--) -- 12.78 (01:30) 7.5 (01:30) 1.2 1.2 0 0 0
05-09-2020 -- (--) -- (--) -- 13.89 (18:40) 7.5 (21:20) 0.4 0 0 0 0.4
04-09-2020 -- (--) -- (--) -- 5.56 (21:20) 3.61 (22:10) 0 0 0 0 0
03-09-2020 -- (--) -- (--) -- 7.78 (16:30) 5 (06:40) 0 0 0 0 0
02-09-2020 -- (--) -- (--) -- 11.11 (19:20) 6.39 (18:00) 0 0 0 0 0
01-09-2020 -- (--) -- (--) -- -- (--) -- (--) 0 0 0 0 0
31-08-2020 -- (--) -- (--) -- 7.78 (16:40) 6.11 (08:00) 0 0 0 0 0
30-08-2020 -- (--) -- (--) -- 10.28 (00:50) 7.22 (00:10) 7.6 0 5.8 1.8 0
29-08-2020 -- (--) -- (--) -- -- (--) -- (--) 27.8 17 5.6 1.2 4
28-08-2020 -- (--) -- (--) -- 15.28 (11:00) 10.28 (09:50) 2.2 0.6 0 0.2 1.4
27-08-2020 -- (--) -- (--) -- 14.72 (22:30) 10.56 (22:40) 1 0 0 0 1
26-08-2020 -- (--) -- (--) -- 7.78 (15:50) 4.17 (16:00) 1 0 1 0 0
25-08-2020 -- (--) -- (--) -- 9.17 (14:20) 5.28 (14:30) 0.4 0 0 0 0.4
24-08-2020 -- (--) -- (--) -- 12.5 (16:20) 7.22 (15:50) 0 0 0 0 0
23-08-2020 -- (--) -- (--) -- 7.22 (16:20) 4.72 (06:40) 0 0 0 0 0

Gráficas

Temp. máximas Temp. mínimas Temp. medias Precipitaciones Rachas de viento máximas Velocidades máximas media en intervalos de 10 minutos

Datos horarios

Fecha y hora oficial Temperatura (ºC) Velocidad del viento (km/h) Dirección del viento Racha (km/h) Dirección de racha Precipitación (mm) Presión (hPa) Tendencia (hPa) Humedad (%)
2020-09-21 23:00:00 17.6 12 Sudeste 15 Sur 0 1011.2 0.1 85
2020-09-21 22:00:00 17.8 10 Sur 12 Sur 0 1011 0 82
2020-09-21 21:00:00 18.1 10 Sudoeste 12 Sudoeste 0 1011 0 82
2020-09-21 20:00:00 18.5 7 Sudoeste 9 Sudoeste 0 1011.1 0.1 82
2020-09-21 19:00:00 19.2 3 Oeste 6 Norte 0 1011 -0.2 80
2020-09-21 18:00:00 19.7 2 Este 8 Este 0 1011 -0.7 80
2020-09-21 17:00:00 20.1 5 Este 10 Este 0 1011 -1 80
2020-09-21 16:00:00 19.6 5 Nordeste 8 Norte 0 1011.2 -1.1 81
2020-09-21 15:00:00 19.2 3 Norte 8 Noroeste 0 1011.7 -0.4 84
2020-09-21 14:00:00 19.4 6 Oeste 11 Oeste 0 1012 0.2 85
2020-09-21 13:00:00 18.9 8 Oeste 15 Oeste 0 1012.3 0.9 87
2020-09-21 12:00:00 18.3 13 Oeste 15 Oeste 0 1012.1 0.9 87
2020-09-21 11:00:00 18 8 Oeste 13 Oeste 0.4 1011.8 1 87
2020-09-21 10:00:00 17.6 4 Oeste 11 Sur 0.2 1011.4 0.9 88
2020-09-21 09:00:00 16.9 7 Sur 12 Sur 0 1011.2 -- 89
2020-09-21 08:00:00 16.7 10 Sur 13 Sur 0 1010.8 -- 88
2020-09-21 07:00:00 17 9 Sur 12 Sur 0 1010.5 -- 88
2020-09-21 06:00:00 16.8 8 Sudoeste 13 Sudoeste 0 1010.4 -- 88
2020-09-21 05:00:00 16.2 11 Sur 14 Sur 0 1010.3 -- 88
2020-09-21 04:00:00 16.4 10 Sur 13 Sur 0 1010.5 -- 87
2020-09-21 03:00:00 16.8 9 Sur 14 Sur 0 1010.8 -- 87
2020-09-21 02:00:00 16.8 12 Sur 16 Sur 0 1011.1 -- 88
2020-09-21 01:00:00 16.9 10 Sur 14 Sur 0 1011.2 -- 87
2020-09-21 00:00:00 17.4 8 Sur 12 Sudoeste 0 1011.4 -- 86
2020-09-20 23:00:00 17.4 8 Sur 10 Sur 0 1011.5 -- 85
2020-09-20 22:00:00 18.7 3 Sudoeste 8 Oeste 0 1010.9 -- 84
2020-09-20 21:00:00 19.1 5 Oeste 9 Oeste 0 1010.6 -- 83
2020-09-20 20:00:00 19.7 2 Norte 4 Norte 0 1010.2 -- 81
2020-09-20 19:00:00 20.4 3 Nordeste 9 Norte 0 1009.6 -- 79
2020-09-20 18:00:00 20.6 4 Noroeste 14 Noroeste 0 1009.5 -- 80
2020-09-20 17:00:00 20.9 10 Noroeste 16 Noroeste 0 1009.3 -- 79
2020-09-20 16:00:00 20.6 8 Oeste 12 Oeste 0 1009.4 -- 79
2020-09-20 15:00:00 20.6 8 Oeste 12 Oeste 0 1009.7 -- 78
2020-09-20 14:00:00 20.5 4 Oeste 12 Noroeste 0 1009.8 -- 78
2020-09-20 13:00:00 21.2 8 Oeste 12 Oeste 0 1009.8 -- 76
2020-09-20 12:00:00 20 5 Oeste 7 Oeste 0 1009.5 -- 80
2020-09-20 11:00:00 19.7 5 Sudoeste 9 Sur 0 1009.2 -- 80
2020-09-20 10:00:00 18 2 Sur 12 Sudeste 0 1008.9 -- 86
2020-09-20 09:00:00 16.2 9 Sudeste 19 Sur 0 1008.6 -- 88
2020-09-20 08:00:00 15.9 12 Sur 15 Sur 0 1008.2 -- 88
2020-09-20 07:00:00 15.8 9 Sur 15 Sur 0 1008.1 -- 88
2020-09-20 06:00:00 15.5 12 Sur 18 Sur 0 1007.8 -- 88
2020-09-20 05:00:00 15.5 12 Sur 18 Sur 0 1007.8 -- 88
2020-09-20 04:00:00 15.6 12 Sur 18 Sur 0 1008.1 -- 88
2020-09-20 03:00:00 15.8 14 Sur 17 Sur 0 1008.2 -- 88
2020-09-20 02:00:00 16.1 13 Sur 15 Sur 0 1008.1 -- 88
2020-09-20 01:00:00 16.6 10 Sur 14 Sur 0 1008.2 -- 86
2020-09-20 00:00:00 17.3 6 Sur 13 Sudoeste 0 1008.2 -- 84
2020-09-19 23:00:00 18.8 12 Oeste 19 Oeste 0 1008.4 -- 83
2020-09-19 22:00:00 18.8 15 Oeste 21 Oeste 0 1008.1 -- 83
2020-09-19 21:00:00 18.6 19 Oeste 26 Oeste 0 1007.3 -- 84
2020-09-19 20:00:00 18.5 17 Oeste 33 Oeste 0 1006.9 -- 84
2020-09-19 19:00:00 18.9 26 Oeste 34 Oeste 0 1006.1 -- 79
2020-09-19 18:00:00 20.1 22 Oeste 26 Oeste 0 1005.4 -- 76
2020-09-19 17:00:00 20.1 10 Oeste 14 Oeste 0 1005.2 -- 78
2020-09-19 16:00:00 19.7 7 Sudeste 17 Sur 0 1005.9 -- 83
2020-09-19 15:00:00 18.3 13 Sur 15 Sur 0 1006 -- 86
2020-09-19 14:00:00 17.6 12 Sur 18 Sudoeste 0 1006.3 -- 85
2020-09-19 13:00:00 17.6 9 Sudoeste 30 Nordeste 0.2 1006.1 -- 82
2020-09-19 12:00:00 18.9 5 Nordeste 19 Sudoeste 0 1005.4 -- 74
2020-09-19 11:00:00 18.7 16 Oeste 21 Sudoeste 0 1004.4 -- 75
2020-09-19 10:00:00 17.6 15 Sudoeste 21 Sudoeste 0 1003.8 -- 82
2020-09-19 09:00:00 17.1 10 Sur 17 Sudoeste 0 1003.3 -- 82
2020-09-19 08:00:00 17.9 14 Sudoeste 17 Sudoeste 0 1002.8 -- 81
2020-09-19 07:00:00 17.6 10 Sudoeste 17 Sudoeste 0 1002.3 -- 83
2020-09-19 06:00:00 17.5 11 Oeste 15 Sudoeste 0 1001.9 -- 84
2020-09-19 05:00:00 17.6 12 Sudoeste 21 Oeste 0 1001.6 -- 85
2020-09-19 04:00:00 17.2 16 Oeste 21 Oeste 0 1001.9 -- 86
2020-09-19 03:00:00 18.1 6 Sudeste 16 Sudeste 0 1002 -- 80
2020-09-19 02:00:00 17.9 11 Este 16 Sur 0 1002 -- 83
2020-09-19 01:00:00 17.7 11 Sudeste 17 Sur 0 1002.1 -- 84
2020-09-19 00:00:00 17.9 7 Sudeste 13 Sudeste 0 1002.5 -- 83
2020-09-18 23:00:00 18.1 6 Sudeste 14 Sudeste 0 1002.9 -- 82
2020-09-18 22:00:00 18.1 6 Este 12 Este 0 1003 -- 81
2020-09-18 21:00:00 18.6 8 Este 20 Este 0 1002.5 -- 78
2020-09-18 20:00:00 18.8 16 Este 20 Este 0 1002.2 -- 76
2020-09-18 19:00:00 19.4 8 Este 13 Este 0 1001.9 -- 76
2020-09-18 18:00:00 19.7 4 Nordeste 7 Sudoeste 0 1001.9 -- 77
2020-09-18 17:00:00 19.2 9 Oeste 18 Oeste 0 1002.2 -- 81
2020-09-18 16:00:00 19.7 6 Oeste 11 Oeste 0.6 1002.3 -- 79
2020-09-18 15:00:00 19.6 7 Sudeste 10 Este 0 1002.5 -- 77
2020-09-18 14:00:00 20.8 4 Nordeste 9 Nordeste 0 1002.3 -- 80
2020-09-18 13:00:00 20.6 5 Este 10 Este 0 1002.4 -- 82
2020-09-18 12:00:00 19.4 8 Este 13 Este 0 1002.3 -- 88
2020-09-18 11:00:00 18.2 6 Este 22 Este 0 1001.8 -- 88
2020-09-18 10:00:00 17.8 13 Este 21 Este 0.2 1001.6 -- 88
2020-09-18 09:00:00 17.8 12 Oeste 15 Oeste 0 1000.9 -- 87
2020-09-18 08:00:00 17.4 9 Sudoeste 13 Sudeste 0 1000.5 -- 88
2020-09-18 07:00:00 17.4 9 Sudeste 15 Sur 0 1000 -- 89
2020-09-18 06:00:00 17.1 10 Sur 13 Sur 0 1000 -- 88
2020-09-18 05:00:00 17.2 6 Sur 9 Oeste 0 1001 -- 88
2020-09-18 04:00:00 17.5 8 Oeste 25 Oeste 0 1001.8 -- 87
2020-09-18 03:00:00 17.8 12 Sudoeste 24 Oeste 0.4 1001.7 -- 87
2020-09-18 02:00:00 17.8 5 Sur 19 Sudoeste 0 1002.8 -- 87
2020-09-18 01:00:00 17.8 17 Oeste 27 Oeste 1.4 1002.2 -- 88
2020-09-18 00:00:00 18.4 17 Oeste 50 Oeste 1.2 1002.9 -- 85
2020-09-17 23:00:00 19 40 Oeste 66 Oeste 0 1002.4 -- 87
2020-09-17 22:00:00 21.7 8 Sudeste 22 Este 0 1000.6 -- 78
2020-09-17 21:00:00 22.4 13 Este 26 Este 0 1000.1 -- 77
2020-09-17 20:00:00 21.2 16 Este 30 Este 0 1000.2 -- 81
2020-09-17 19:00:00 20.7 17 Este 30 Este 0 1000.1 -- 82
2020-09-17 18:00:00 20.6 18 Este 24 Este 0 1000.6 -- 82
2020-09-17 17:00:00 21.8 6 Este 15 Oeste 0 1001.7 -- 81
2020-09-17 16:00:00 21 4 Sur 20 Este 0 1002.4 -- 84
2020-09-17 15:00:00 20.6 5 Este 24 Oeste 0 1003 -- 80
2020-09-17 14:00:00 21.7 7 Este 13 Este 0 1003.3 -- 78
2020-09-17 13:00:00 20.8 3 Sudeste 16 Este 0 1004 -- 81
2020-09-17 12:00:00 19.9 13 Este 19 Sur 0.2 1004.3 -- 81
2020-09-17 11:00:00 19.4 12 Sudeste 20 Este 0 1004.6 -- 84
2020-09-17 10:00:00 19.5 13 Este 23 Sur 0 1005 -- 83
2020-09-17 09:00:00 19.4 15 Sur 22 Sur 0 1004.6 -- 83
2020-09-17 08:00:00 19.3 12 Sudeste 19 Sudeste 0.2 1004.9 -- 87
2020-09-17 07:00:00 19.4 12 Este 21 Este 0 1005.2 -- 88
2020-09-17 06:00:00 19.3 14 Este 37 Este 0 1005.6 -- 87
2020-09-17 05:00:00 19.5 27 Este 45 Este 0 1005.7 -- 88
2020-09-17 04:00:00 19.1 18 Este 33 Nordeste 0 1005.9 -- 88
2020-09-17 03:00:00 19.6 11 Sudeste 19 Este 0 1008.2 -- 88
2020-09-17 02:00:00 19.4 8 Este 15 Este 0 1008.5 -- 89
2020-09-17 01:00:00 19.7 6 Este 13 Este 0 1009.2 -- 90
2020-09-17 00:00:00 19.4 8 Este 16 Este 0 1009.4 -- 90
2020-09-16 23:00:00 19.2 11 Este 22 Este 0 1009.5 -- 90
2020-09-16 22:00:00 19.1 11 Este 30 Este 0 1009.5 -- 89
2020-09-16 21:00:00 19.4 12 Nordeste 28 Nordeste 0 1009 -- 88
2020-09-16 20:00:00 20 16 Este 29 Este 0 1009.1 -- 86
2020-09-16 19:00:00 20 17 Este 24 Este 0 1009.2 -- 84
2020-09-16 18:00:00 21.1 11 Este 19 Este 0 1009.5 -- 81
2020-09-16 17:00:00 20.3 14 Este 21 Este 0 1009.4 -- 82
2020-09-16 16:00:00 20.8 14 Este 18 Este 0 1010 -- 78
2020-09-16 15:00:00 21.5 7 Este 11 Este 0 1010.5 -- 77
2020-09-16 14:00:00 20.7 3 Norte 8 Noroeste 0 1010.9 -- 77
2020-09-16 13:00:00 20.6 5 Noroeste 8 Norte 0 1011.2 -- 76
2020-09-16 12:00:00 20.3 3 Noroeste 5 Norte 0 1011.4 -- 76
2020-09-16 11:00:00 20.1 6 Sur 17 Sudeste 0 1011.2 -- 78
2020-09-16 10:00:00 18.1 8 Este 18 Sudeste 0 1011.3 -- 84
2020-09-16 09:00:00 16.1 13 Sur 23 Sur 0 1011.1 -- 88
2020-09-16 08:00:00 16.9 9 Sudeste 23 Sudeste 0 1010.8 -- 87
2020-09-16 07:00:00 16 15 Sudeste 20 Sudeste 0 1011 -- 89
2020-09-16 06:00:00 16 13 Sudeste 17 Sur 0 1011.2 -- 89
2020-09-16 05:00:00 16.2 12 Sudeste 14 Sur 0 1011.6 -- 89
2020-09-16 04:00:00 17 8 Sur 13 Sudoeste 0 1011.9 -- 89
2020-09-16 03:00:00 18.3 12 Sudoeste 18 Oeste 0 1012.2 -- 90
2020-09-16 02:00:00 18.3 11 Sudoeste 21 Oeste 0 1012.1 -- 90
2020-09-16 01:00:00 18.1 15 Oeste 19 Oeste 0 1012.1 -- 88
2020-09-16 00:00:00 19 6 Sudoeste 13 Sudeste 0 1011.9 -- 85
2020-09-15 23:00:00 19.7 10 Sudeste 19 Este 0 1012 -- 85
2020-09-15 22:00:00 19.7 12 Este 23 Este 0 1011.7 -- 86
2020-09-15 21:00:00 19.8 14 Este 36 Este 0 1011.2 -- 85
2020-09-15 20:00:00 20.1 22 Este 32 Este 0 1011 -- 84
2020-09-15 19:00:00 20.5 20 Este 28 Este 0 1011.1 -- 84
2020-09-15 18:00:00 21.1 13 Este 19 Este 0 1011.6 -- 80
2020-09-15 17:00:00 21.3 11 Este 16 Este 0 1011.9 -- 77
2020-09-15 16:00:00 21.8 10 Este 15 Este 0 1012.2 -- 77
2020-09-15 15:00:00 21.5 10 Este 14 Este 0 1012.4 -- 78
2020-09-15 14:00:00 21.5 4 Norte 8 Nordeste 0 1012.4 -- 78
2020-09-15 13:00:00 21.2 3 Noroeste 5 Noroeste 0 1012.6 -- 80
2020-09-15 12:00:00 20.6 3 Nordeste 6 Oeste 0 1012.8 -- 83
2020-09-15 11:00:00 19.4 5 Sudoeste 8 Sudoeste 0 1012.5 -- 86
2020-09-15 10:00:00 19.1 2 Sur 13 Sudeste 0 1012.1 -- 88
2020-09-15 09:00:00 17.9 10 Este 17 Sudeste 0 1011.6 -- 89
2020-09-15 08:00:00 17.5 13 Sudeste 17 Sudeste 0 1011.2 -- 89
2020-09-15 07:00:00 17.6 7 Sur 14 Sudeste 0 1011.2 -- 88
2020-09-15 06:00:00 18.7 4 Este 13 Sudoeste 1.2 1011.1 -- 88
2020-09-15 05:00:00 18.8 11 Sudoeste 17 Oeste 0 1011.2 -- 87
2020-09-15 04:00:00 18.8 14 Sudoeste 18 Sur 0 1011 -- 86
2020-09-15 03:00:00 19.3 5 Sur 20 Sudeste 0 1011.5 -- 86
2020-09-15 02:00:00 19.3 11 Sudeste 22 Sudeste 0.4 1011.6 -- 87
2020-09-15 01:00:00 19.1 10 Sudeste 17 Sudeste 0 1012.1 -- 88
2020-09-15 00:00:00 18.9 7 Este 13 Sudoeste 0 1012.1 -- 88
2020-09-14 23:00:00 19 7 Oeste 20 Noroeste 0.2 1012.7 -- 87
2020-09-14 22:00:00 19.6 6 Este 18 Sudoeste 0 1011.2 -- 86
2020-09-14 21:00:00 20 9 Sudeste 26 Este 0.2 1011.1 -- 85
2020-09-14 20:00:00 20 19 Este 30 Sudeste 0.2 1010.1 -- 83
2020-09-14 19:00:00 21.3 6 Sudeste 11 Sudeste 0 1011 -- 78
2020-09-14 18:00:00 22.3 4 Sur 10 Oeste 0 1010.3 -- 74
2020-09-14 17:00:00 23.1 4 Noroeste 9 Oeste 0 1010.7 -- 72
2020-09-14 16:00:00 23.5 9 Oeste 13 Oeste 0 1011 -- 69
2020-09-14 15:00:00 21.9 4 Oeste 7 Sudoeste 0 1011 -- 73
2020-09-14 14:00:00 20.7 4 Sudeste 14 Oeste 0 1010.8 -- 75
2020-09-14 13:00:00 19.9 9 Sudoeste 17 Oeste 0.2 1011.3 -- 73
2020-09-14 12:00:00 21 12 Sur 19 Sur 0 1011.2 -- 69
2020-09-14 11:00:00 21.4 12 Sur 23 Sur 0 1010.3 -- 65
2020-09-14 10:00:00 21.3 17 Sur 22 Sur 0 1009.9 -- 66
2020-09-14 09:00:00 20 18 Sur 24 Sur 0 1009.4 -- 69
2020-09-14 08:00:00 19.4 14 Sur 21 Sur 0 1008.9 -- 71
2020-09-14 07:00:00 19.3 12 Sur 15 Sur 0 1008.7 -- 71
2020-09-14 06:00:00 19.4 5 Sur 15 Sudoeste 0 1008.5 -- 70
2020-09-14 05:00:00 20.8 12 Sudoeste 21 Oeste 0 1008.4 -- 64
2020-09-14 04:00:00 20.3 7 Oeste 14 Sudoeste 0 1008.6 -- 68
2020-09-14 03:00:00 20.9 6 Sudoeste 26 Oeste 0 1008.7 -- 69
2020-09-14 02:00:00 21.5 14 Oeste 21 Sudoeste 0 1008.8 -- 69
2020-09-14 01:00:00 19.6 5 Sudoeste 21 Oeste 0 1008.9 -- 80
2020-09-14 00:00:00 18.7 14 Oeste 28 Oeste 0 1008.8 -- 79
2020-09-13 23:00:00 20.4 18 Oeste 23 Sudoeste 0 1009 -- 73
2020-09-13 22:00:00 24.3 7 Sudeste 14 Sudeste 0 1008.3 -- 65
2020-09-13 21:00:00 23.1 5 Sudeste 12 Sudeste 0 1008 -- 69
2020-09-13 20:00:00 21.9 9 Este 13 Este 0 1008 -- 66
2020-09-13 19:00:00 22.3 12 Este 15 Este 0 1008 -- 63
2020-09-13 18:00:00 21.5 8 Este 19 Este 0 1008.3 -- 66
2020-09-13 17:00:00 22.5 11 Este 14 Este 0 1008.6 -- 65
2020-09-13 16:00:00 23.7 9 Este 17 Este 0 1009.2 -- 66
2020-09-13 15:00:00 22.3 9 Este 15 Este 0 1009.6 -- 71
2020-09-13 14:00:00 20.8 12 Este 15 Este 0 1009.9 -- 76
2020-09-13 13:00:00 21.2 11 Este 15 Este 0 1010.4 -- 79
2020-09-13 12:00:00 19.7 6 Este 9 Este 0 1010.9 -- 80
2020-09-13 11:00:00 20.3 5 Este 16 Sudeste 0 1010.6 -- 79
2020-09-13 10:00:00 18 11 Sudeste 21 Sudeste 0 1010.5 -- 82
2020-09-13 09:00:00 16.3 14 Sudeste 21 Sudeste 0 1010.6 -- 87
2020-09-13 08:00:00 15.9 15 Sudeste 19 Sudeste 0 1010.4 -- 89
2020-09-13 07:00:00 16.6 10 Sur 13 Sur 0 1010.7 -- 90
2020-09-13 06:00:00 17.7 9 Sudoeste 13 Sudoeste 0 1010.7 -- 90
2020-09-13 05:00:00 17 9 Sur 17 Sudeste 0 1011.1 -- 89
2020-09-13 04:00:00 18.6 9 Sudeste 18 Este 0 1011.2 -- 88
2020-09-13 03:00:00 19 12 Este 21 Este 0 1011.6 -- 89
2020-09-13 02:00:00 19 12 Este 19 Este 0 1012 -- 89
2020-09-13 01:00:00 18.8 7 Este 20 Este 0 1012.6 -- 89
2020-09-13 00:00:00 18.5 11 Este 21 Este 0 1012.6 -- 89
2020-09-12 23:00:00 18.1 14 Este 30 Este 0 1012.5 -- 89
2020-09-12 22:00:00 18.1 17 Este 35 Este 0 1012 -- 88
2020-09-12 21:00:00 18.2 20 Este 38 Este 0 1011.7 -- 87
2020-09-12 20:00:00 18.2 23 Este 43 Este 0 1011.4 -- 87
2020-09-12 19:00:00 18.8 29 Este 40 Este 0 1011.3 -- 86
2020-09-12 18:00:00 19.1 20 Nordeste 35 Este 0 1011.4 -- 85
2020-09-12 17:00:00 19.4 20 Nordeste 34 Este 0 1011.7 -- 83
2020-09-12 16:00:00 19.7 23 Este 41 Nordeste 0 1012.2 -- 80
2020-09-12 15:00:00 20 18 Nordeste 36 Nordeste 0 1012 -- 81
2020-09-12 14:00:00 19.5 18 Nordeste 32 Nordeste 0 1012.2 -- 83
2020-09-12 13:00:00 19.3 16 Este 30 Este 0 1012.4 -- 84
2020-09-12 12:00:00 19.1 15 Sudeste 30 Este 0 1012.4 -- 84
2020-09-12 11:00:00 18.8 13 Este 26 Este 0 1011.9 -- 85
2020-09-12 10:00:00 19.3 12 Este 24 Este 0 1011.5 -- 84
2020-09-12 09:00:00 18.9 13 Este 21 Este 0 1011 -- 86
2020-09-12 08:00:00 19.1 11 Este 22 Este 0 1010.2 -- 86
2020-09-12 07:00:00 18.4 11 Este 21 Este 0 1009.9 -- 87
2020-09-12 06:00:00 18.8 13 Este 22 Este 0 1009.9 -- 87
2020-09-12 05:00:00 18.9 11 Este 19 Este 0 1010 -- 86
2020-09-12 04:00:00 19 13 Este 21 Este 0 1010 -- 87
2020-09-12 03:00:00 18.7 11 Este 27 Este 0 1010.2 -- 88
2020-09-12 02:00:00 18.3 11 Este 24 Este 0 1010.3 -- 88
2020-09-12 01:00:00 18.4 11 Este 25 Este 0 1009.9 -- 88
2020-09-12 00:00:00 18.8 16 Este 26 Sudeste 0 1009.5 -- 89
2020-09-11 23:00:00 18.9 15 Este 30 Este 0 1009.2 -- 89
2020-09-11 22:00:00 18.4 18 Este 33 Este 0 1008.9 -- 89
2020-09-11 21:00:00 18.3 12 Este 31 Este 0 1008.6 -- 89
2020-09-11 20:00:00 18.7 21 Este 32 Este 0 1008.4 -- 88
2020-09-11 19:00:00 19 22 Este 35 Este 0 1008.4 -- 87
2020-09-11 18:00:00 19.4 14 Nordeste 27 Nordeste 0 1008.6 -- 84
2020-09-11 17:00:00 20.7 17 Este 28 Este 0 1008.9 -- 81
2020-09-11 16:00:00 20.7 14 Nordeste 26 Nordeste 0 1009.1 -- 79
2020-09-11 15:00:00 20.9 12 Este 20 Este 0 1009.3 -- 77
2020-09-11 14:00:00 20.8 5 Este 12 Este 0 1009.6 -- 77
2020-09-11 13:00:00 19.9 3 Noroeste 8 Nordeste 0 1009.7 -- 78
2020-09-11 12:00:00 18.5 7 Oeste 13 Oeste 0 1009.5 -- 82
2020-09-11 11:00:00 18.2 9 Oeste 13 Sudoeste 0 1009.4 -- 82
2020-09-11 10:00:00 17.7 5 Oeste 11 Sudeste 0 1009.1 -- 84
2020-09-11 09:00:00 16.2 4 Sudeste 12 Sudeste 0 1009 -- 88
2020-09-11 08:00:00 16.5 10 Sudeste 16 Sudeste 0 1008.7 -- 88
2020-09-11 07:00:00 16.5 11 Sudeste 18 Sudeste 0 1008.7 -- 87
2020-09-11 06:00:00 17 12 Sudeste 17 Sudeste 0 1009.1 -- 88
2020-09-11 05:00:00 16.4 13 Sudeste 17 Sudeste 0 1009.4 -- 88
2020-09-11 04:00:00 16.9 10 Sudeste 15 Sudeste 0 1010.2 -- 87
2020-09-11 03:00:00 17.6 10 Sudeste 15 Sudeste 0 1010.7 -- 87
2020-09-11 02:00:00 17.4 9 Sudeste 19 Sudeste 0 1011 -- 88
2020-09-11 01:00:00 17.4 11 Sudeste 17 Este 0 1011.4 -- 88
2020-09-11 00:00:00 18.1 9 Este 19 Este 0 1011.8 -- 87
2020-09-10 23:00:00 18.1 10 Este 24 Este 0 1012 -- 87
2020-09-10 22:00:00 18.4 16 Este 29 Este 0 1011.6 -- 86
2020-09-10 21:00:00 18.4 19 Este 29 Este 0 1011.2 -- 86
2020-09-10 20:00:00 18.7 14 Nordeste 26 Este 0 1011.5 -- 84
2020-09-10 19:00:00 19.5 17 Este 27 Este 0 1011.8 -- 83
2020-09-10 18:00:00 20 15 Nordeste 30 Este 0 1012.1 -- 82
2020-09-10 17:00:00 20.1 14 Este 28 Nordeste 0 1012.7 -- 81
2020-09-10 16:00:00 20.7 16 Este 25 Este 0 1013.3 -- 79
2020-09-10 15:00:00 20.5 13 Este 22 Nordeste 0 1013.8 -- 78
2020-09-10 14:00:00 20.8 10 Este 18 Este 0 1014.3 -- 76
2020-09-10 13:00:00 20.2 8 Este 18 Este 0 1014.7 -- 75
2020-09-10 12:00:00 19.7 13 Este 18 Este 0 1014.7 -- 73
2020-09-10 11:00:00 18.9 5 Nordeste 9 Este 0 1014.8 -- 74
2020-09-10 10:00:00 18.9 5 Este 18 Sudeste 0 1014.6 -- 78
2020-09-10 09:00:00 16.1 15 Sudeste 24 Sudeste 0 1014 -- 85
2020-09-10 08:00:00 15.2 14 Sudeste 19 Sudeste 0 1013.9 -- 85
2020-09-10 07:00:00 15.8 10 Sudeste 19 Sudeste 0 1013.8 -- 85
2020-09-10 06:00:00 15.6 15 Sudeste 20 Sudeste 0 1013.7 -- 85
2020-09-10 05:00:00 16 14 Sudeste 20 Sudeste 0 1014.2 -- 84
2020-09-10 04:00:00 16.3 13 Sudeste 17 Sudeste 0 1014.6 -- 85
2020-09-10 03:00:00 17.1 10 Sudeste 19 Sudeste 0 1015 -- 83
2020-09-10 02:00:00 16.9 15 Sudeste 19 Sudeste 0 1015.3 -- 84
2020-09-10 01:00:00 17.3 9 Sudeste 14 Sudeste 0 1015.8 -- 85
2020-09-10 00:00:00 18.4 9 Sudeste 26 Este 0 1015.9 -- 84
2020-09-09 23:00:00 18.8 11 Este 19 Este 0 1015.9 -- 87
2020-09-09 22:00:00 19 9 Este 23 Este 0 1015.8 -- 88
2020-09-09 21:00:00 19.3 17 Este 24 Este 0 1015 -- 87
2020-09-09 20:00:00 19.4 13 Este 26 Este 0 1015 -- 84
2020-09-09 19:00:00 19.6 17 Este 32 Este 0 1014.4 -- 82
2020-09-09 18:00:00 20.4 14 Este 27 Este 0 1014.5 -- 79
2020-09-09 17:00:00 20.6 13 Este 19 Este 0 1014.7 -- 75
2020-09-09 16:00:00 20.1 11 Este 17 Este 0 1015 -- 73
2020-09-09 15:00:00 19.7 8 Noroeste 12 Oeste 0 1015.5 -- 73
2020-09-09 14:00:00 20.3 3 Norte 8 Sudoeste 0 1015.8 -- 70
2020-09-09 13:00:00 20.1 5 Oeste 12 Oeste 0 1016.2 -- 70
2020-09-09 12:00:00 18.6 10 Oeste 14 Oeste 0 1016.2 -- 73
2020-09-09 11:00:00 17.3 9 Oeste 14 Oeste 0 1015.9 -- 78
2020-09-09 10:00:00 17.3 7 Sur 16 Sudeste 0 1015.4 -- 77
2020-09-09 09:00:00 15.3 12 Sudeste 20 Sur 0 1015.1 -- 82
2020-09-09 08:00:00 14.6 17 Sudeste 23 Sudeste 0 1014.7 -- 83
2020-09-09 07:00:00 14.6 16 Sudeste 22 Sudeste 0 1014.4 -- 84
2020-09-09 06:00:00 14.9 12 Sudeste 18 Sudeste 0 1014.4 -- 82
2020-09-09 05:00:00 15.8 12 Sudeste 20 Sudeste 0 1014.2 -- 80
2020-09-09 04:00:00 16.3 14 Sudeste 23 Sudeste 0 1014.2 -- 78
2020-09-09 03:00:00 16.6 11 Sudeste 18 Este 0 1014.3 -- 76
2020-09-09 02:00:00 17.2 8 Este 17 Este 0 1014.5 -- 74
2020-09-09 01:00:00 17.4 9 Sudeste 20 Este 0 1014.8 -- 71
2020-09-09 00:00:00 18 10 Este 32 Este 0 1015 -- 69
2020-09-08 23:00:00 17.9 20 Este 34 Este 0 1014.9 -- 70
2020-09-08 22:00:00 17.8 17 Este 35 Nordeste 0 1014.9 -- 73
2020-09-08 21:00:00 18.1 24 Nordeste 47 Nordeste 0 1014.3 -- 72
2020-09-08 20:00:00 18.4 31 Nordeste 46 Nordeste 0 1013.8 -- 74
2020-09-08 19:00:00 18.9 32 Nordeste 49 Nordeste 0 1013.7 -- 73
2020-09-08 18:00:00 19 28 Nordeste 48 Nordeste 0 1014 -- 73
2020-09-08 17:00:00 19.5 28 Nordeste 53 Nordeste 0 1014.3 -- 71
2020-09-08 16:00:00 19.6 30 Nordeste 51 Nordeste 0 1014.8 -- 72
2020-09-08 15:00:00 19.2 32 Nordeste 51 Nordeste 0 1015.2 -- 73
2020-09-08 14:00:00 19.3 32 Nordeste 50 Nordeste 0 1015.6 -- 75
2020-09-08 13:00:00 18.9 30 Nordeste 45 Nordeste 0 1016.3 -- 73
2020-09-08 12:00:00 18.8 28 Nordeste 45 Nordeste 0 1016.5 -- 69
2020-09-08 11:00:00 18.9 25 Este 39 Este 0 1016.8 -- 68
2020-09-08 10:00:00 18.9 16 Este 33 Nordeste 0 1017.1 -- 65
2020-09-08 09:00:00 16 13 Sudeste 29 Nordeste 0 1017.1 -- 65
2020-09-08 08:00:00 16.2 10 Este 22 Este 0 1016.8 -- 65
2020-09-08 07:00:00 15.4 13 Sudeste 20 Sudeste 0 1016.6 -- 66
2020-09-08 06:00:00 15.2 11 Sudeste 27 Este 0 1016.6 -- 69
2020-09-08 05:00:00 16.9 12 Este 25 Este 0 1016.7 -- 64
2020-09-08 04:00:00 16.7 12 Este 27 Este 0 1016.9 -- 64
2020-09-08 03:00:00 16.8 18 Este 33 Este 0 1016.9 -- 68
2020-09-08 02:00:00 17.1 22 Este 33 Este 0 1016.9 -- 69
2020-09-08 01:00:00 17.1 18 Este 35 Este 0 1017.3 -- 75
2020-09-08 00:00:00 17.4 16 Este 37 Este 0 1017.7 -- 75
2020-09-07 23:00:00 17.9 16 Este 37 Este 0 1017.7 -- 73
2020-09-07 22:00:00 18.3 21 Este 38 Este 0 1017.5 -- 71
2020-09-07 21:00:00 18 24 Este 43 Nordeste 0 1016.9 -- 76
2020-09-07 20:00:00 18.6 24 Nordeste 44 Nordeste 0 1016.6 -- 73
2020-09-07 19:00:00 19 29 Nordeste 48 Nordeste 0 1016.7 -- 72
2020-09-07 18:00:00 19.2 28 Nordeste 48 Nordeste 0 1016.6 -- 72
2020-09-07 17:00:00 19.5 30 Nordeste 45 Nordeste 0 1016.4 -- 71
2020-09-07 16:00:00 19.5 26 Nordeste 45 Nordeste 0 1017 -- 71
2020-09-07 15:00:00 19.5 27 Nordeste 41 Nordeste 0 1017.5 -- 73
2020-09-07 14:00:00 19.5 23 Nordeste 37 Nordeste 0 1017.6 -- 70
2020-09-07 13:00:00 19.6 14 Nordeste 31 Nordeste 0 1017.4 -- 69
2020-09-07 12:00:00 19.2 17 Nordeste 27 Nordeste 0 1017.5 -- 67
2020-09-07 11:00:00 18 16 Este 29 Este 0 1017.5 -- 68
2020-09-07 10:00:00 17.9 11 Nordeste 19 Nordeste 0 1017.1 -- 71
2020-09-07 09:00:00 16.9 8 Este 18 Este 0 1016.6 -- 71
2020-09-07 08:00:00 16.7 11 Este 22 Sudeste 0 1016.3 -- 70
2020-09-07 07:00:00 16.7 11 Este 18 Este 0 1015.8 -- 72
2020-09-07 06:00:00 16.6 8 Este 19 Este 0 1015.6 -- 74
2020-09-07 05:00:00 16.7 9 Este 24 Este 0 1015.7 -- 76
2020-09-07 04:00:00 17.2 13 Este 21 Nordeste 0 1015.9 -- 76
2020-09-07 03:00:00 17.1 11 Este 29 Este 0 1016.2 -- 74
2020-09-07 02:00:00 17.4 14 Este 28 Este 0 1016.4 -- 72
2020-09-07 01:00:00 17.6 14 Este 26 Este 0 1016.5 -- 74
2020-09-07 00:00:00 17.7 15 Este 27 Este 0 1016.4 -- 73
2020-09-06 23:00:00 17.7 17 Este 26 Este 0 1016.5 -- 73
2020-09-06 22:00:00 17.8 17 Este 32 Nordeste 0 1016.1 -- 75
2020-09-06 21:00:00 18 23 Nordeste 35 Nordeste 0 1015.6 -- 71
2020-09-06 20:00:00 18.4 21 Nordeste 34 Nordeste 0 1015.8 -- 70
2020-09-06 19:00:00 19 22 Nordeste 36 Nordeste 0 1015.7 -- 68
2020-09-06 18:00:00 19.5 22 Nordeste 39 Nordeste 0 1015.6 -- 65
2020-09-06 17:00:00 19.5 21 Nordeste 34 Nordeste 0 1015.8 -- 67
2020-09-06 16:00:00 19 17 Nordeste 37 Nordeste 0 1016.1 -- 70
2020-09-06 15:00:00 19.1 21 Nordeste 40 Nordeste 0 1016 -- 67
2020-09-06 14:00:00 18.8 19 Nordeste 34 Nordeste 0 1016.1 -- 71
2020-09-06 13:00:00 18.4 17 Este 31 Este 0 1016.4 -- 71
2020-09-06 12:00:00 18.2 15 Este 39 Nordeste 0 1016.6 -- 72
2020-09-06 11:00:00 17 18 Este 37 Este 0 1016.6 -- 76
2020-09-06 10:00:00 16.7 24 Este 37 Este 0 1016.3 -- 77
2020-09-06 09:00:00 16.8 20 Este 41 Nordeste 0 1016.3 -- 75
2020-09-06 08:00:00 17.3 24 Nordeste 44 Nordeste 0 1015.8 -- 73
2020-09-06 07:00:00 17.4 19 Nordeste 40 Nordeste 0 1015.6 -- 73
2020-09-06 06:00:00 17.1 19 Este 34 Este 0 1015.7 -- 79
2020-09-06 05:00:00 16.6 18 Este 35 Este 0 1016 -- 83
2020-09-06 04:00:00 16.3 23 Este 39 Nordeste 0.4 1016.4 -- 89
2020-09-06 03:00:00 16.5 21 Nordeste 39 Este 0.4 1016.8 -- 88
2020-09-06 02:00:00 16.9 27 Este 46 Este 0 1017.2 -- 86
2020-09-06 01:00:00 17 21 Nordeste 41 Nordeste 0.4 1017.1 -- 86
2020-09-06 00:00:00 17.5 21 Este 35 Este 0 1017.1 -- 85
2020-09-05 23:00:00 17.4 20 Este 43 Nordeste 0.2 1017.3 -- 86
2020-09-05 22:00:00 17.4 26 Este 43 Este 0.2 1017.1 -- 87
2020-09-05 21:00:00 17.6 25 Nordeste 45 Nordeste 0 1016.6 -- 86
2020-09-05 20:00:00 18.1 27 Este 43 Nordeste 0 1016.4 -- 82
2020-09-05 19:00:00 18.5 21 Nordeste 50 Nordeste 0 1016.2 -- 80
2020-09-05 18:00:00 19 25 Nordeste 47 Nordeste 0 1016.1 -- 80
2020-09-05 17:00:00 19.2 19 Nordeste 45 Nordeste 0 1016.7 -- 80
2020-09-05 16:00:00 19.5 13 Norte 45 Nordeste 0 1017.2 -- 79
2020-09-05 15:00:00 20 10 Norte 43 Nordeste 0 1017.5 -- 77
2020-09-05 14:00:00 19.9 13 Norte 39 Nordeste 0 1017.5 -- 78
2020-09-05 13:00:00 19.7 14 Nordeste 40 Nordeste 0 1017.9 0.8 77
2020-09-05 12:00:00 19.6 17 Nordeste 45 Nordeste 0 1017.8 -- 77
2020-09-05 11:00:00 19.4 21 Nordeste 39 Nordeste 0 1017.4 -- 78
2020-09-05 10:00:00 19.5 13 Norte 40 Nordeste 0 1017.1 -- 79
2020-09-05 09:00:00 19.7 13 Norte -- -- 0 1016.7 -- 78
2020-09-05 08:00:00 19.5 15 Nordeste 35 Nordeste 0 1016.3 -- 76
2020-09-05 07:00:00 19.5 10 Noroeste 30 Nordeste 0 1016 -- 80
2020-09-05 06:00:00 19.6 11 Noroeste 27 Norte 0 1015.8 -- 81
2020-09-05 05:00:00 19.7 8 Oeste 21 Sudoeste 0 1016 -- 82
2020-09-05 04:00:00 19.9 6 Oeste 19 Este 0 1016 -- 83
2020-09-05 03:00:00 20.2 8 Sudoeste 16 Sudeste 0 1015.9 -- 84
2020-09-05 02:00:00 20.6 6 Oeste 14 Sudoeste 0 1015.9 -- 85
2020-09-05 01:00:00 20.7 0 Calma 11 Noroeste 0 1015.9 -- 84
2020-09-05 00:00:00 20.8 8 Oeste 16 Oeste 0 1015.9 -- 85
2020-09-04 23:00:00 20.8 9 Oeste 20 Oeste 0 1015.8 -- 83
2020-09-04 22:00:00 20.8 13 Oeste -- -- 0 1015.2 -- 83
2020-09-04 21:00:00 21.1 9 Oeste 17 Oeste 0 1014.2 -- 81
2020-09-04 20:00:00 21.9 7 Oeste 10 Oeste 0 1013.7 -- 80
2020-09-04 19:00:00 22.3 5 Norte 12 Norte 0 1013.4 -- 78
2020-09-04 18:00:00 22.9 6 Nordeste 15 Nordeste 0 1012.9 -- 79
2020-09-04 17:00:00 23.3 7 Este 13 Este 0 1012.7 -- 78
2020-09-04 16:00:00 22.9 6 Este 14 Este 0 1012.6 -- 79
2020-09-04 15:00:00 22.8 9 Este 13 Este 0 1012.7 -- 74
2020-09-04 14:00:00 22.1 5 Nordeste 10 Nordeste 0 1012.8 -- 77
2020-09-04 13:00:00 21.9 5 Nordeste 8 Norte 0 1013.1 -- 77
2020-09-04 12:00:00 21.7 4 Oeste 8 Noroeste 0 1013.3 -- 80
2020-09-04 11:00:00 20.9 3 Noroeste 6 Sudeste 0 1013.1 -- 81
2020-09-04 10:00:00 19.5 5 Sudeste 9 Sur 0 1013 -- 86
2020-09-04 09:00:00 16.4 8 Sur 12 Sur 0 1012.7 -- 88
2020-09-04 08:00:00 15.9 9 Sur 12 Sur 0 1012.5 -- 88
2020-09-04 07:00:00 15.7 3 Sudoeste 15 Sudeste 0 1012.6 -- 88
2020-09-04 06:00:00 16.3 12 Sudeste 14 Sudeste 0 1012.3 -- 88
2020-09-04 05:00:00 16.4 9 Sur 13 Oeste 0 1012.9 -- 87
2020-09-04 04:00:00 18.6 12 Oeste 14 Oeste 0 1013.3 -- 86
2020-09-04 03:00:00 18.2 8 Sudoeste 12 Sudoeste 0 1013.7 -- 86
2020-09-04 02:00:00 18.1 6 Sudeste 11 Sudeste 0 1013.9 -- 85
2020-09-04 01:00:00 18.5 10 Sudeste 15 Sudeste 0 1014 -- 85
2020-09-04 00:00:00 18 10 Sur 12 Sur 0 1014.2 -- 85
2020-09-03 23:00:00 18.9 3 Sur 12 Este 0 1014.1 -- 83
2020-09-03 22:00:00 20.4 8 Este 18 Este 0 1013.7 -- 82
2020-09-03 21:00:00 20.7 10 Este 19 Este 0 1013.1 -- 80
2020-09-03 20:00:00 21.4 13 Este 21 Este 0 1012.7 -- 75
2020-09-03 19:00:00 21.9 14 Este 27 Este 0 1012.5 -- 73
2020-09-03 18:00:00 21.9 14 Este 27 Este 0 1012.6 -- 70
2020-09-03 17:00:00 21.8 14 Este 28 Nordeste 0 1012.7 -- 72
2020-09-03 16:00:00 21.8 15 Nordeste 26 Nordeste 0 1013.1 -- 72
2020-09-03 15:00:00 21.7 14 Este 20 Este 0 1013.6 -- 72
2020-09-03 14:00:00 21.9 7 Nordeste 15 Nordeste 0 1013.8 -- 73
2020-09-03 13:00:00 21.4 6 Noroeste 9 Noroeste 0 1013.7 -- 73
2020-09-03 12:00:00 21.1 4 Oeste 12 Oeste 0 1013.4 -- 77
2020-09-03 11:00:00 19.1 10 Oeste 14 Oeste 0 1013.1 -- 82
2020-09-03 10:00:00 18.8 4 Sudoeste 19 Sur 0 1012.5 -- 82
2020-09-03 09:00:00 16.1 17 Sudeste 21 Sudeste 0 1012 -- 87
2020-09-03 08:00:00 15.3 14 Sur 19 Sur 0 1011.8 -- 87
2020-09-03 07:00:00 15.4 17 Sur 22 Sudeste 0 1011.7 -- 87
2020-09-03 06:00:00 15.3 13 Sudeste 17 Sur 0 1012 -- 88
2020-09-03 05:00:00 15.4 13 Sudeste 17 Sur 0 1012.1 -- 87
2020-09-03 04:00:00 15.9 11 Sur 14 Sur 0 1012.3 -- 86
2020-09-03 03:00:00 16.1 10 Sur 15 Sur 0 1012.5 -- 86
2020-09-03 02:00:00 16.7 14 Sur 21 Sudeste 0 1012.4 -- 85
2020-09-03 01:00:00 17.9 12 Sudeste 19 Sudeste 0 1012.4 -- 83
2020-09-03 00:00:00 17.3 11 Sudeste 14 Sudeste 0 1012.5 -- 83
2020-09-02 23:00:00 17.9 12 Sudeste 17 Este 0 1012.5 -- 81
2020-09-02 22:00:00 19.6 9 Este 31 Nordeste 0 1012.5 -- 77
2020-09-02 21:00:00 20 19 Nordeste 34 Nordeste 0 1011.9 -- 75
2020-09-02 20:00:00 20.5 20 Nordeste 40 Nordeste 0 1011.6 -- 72
2020-09-02 19:00:00 20.8 21 Nordeste 38 Nordeste 0 1011.5 -- 71
2020-09-02 18:00:00 20.9 23 Nordeste 36 Nordeste 0 1011.2 -- 70
2020-09-02 17:00:00 21.1 19 Nordeste 35 Nordeste 0 1011.4 -- 68
2020-09-02 16:00:00 21.5 14 Nordeste 33 Nordeste 0 1011.7 -- 67
2020-09-02 15:00:00 21.3 14 Nordeste 30 Nordeste 0 1011.9 -- 67
2020-09-02 14:00:00 21.2 9 Norte 23 Nordeste 0 1011.9 -- 67
2020-09-02 13:00:00 21 10 Nordeste 23 Nordeste 0 1011.9 -- 66
2020-09-02 12:00:00 20.6 6 Noroeste 22 Nordeste 0 1012 -- 67
2020-09-02 11:00:00 19.6 10 Este 18 Este 0 1011.7 -- 68
2020-09-02 10:00:00 17.6 9 Sudeste 18 Sudeste 0 1011.5 -- 79
2020-09-02 09:00:00 14.9 13 Sudeste 17 Sudeste 0 1011.7 -- 85
2020-09-02 08:00:00 14.2 13 Sudeste 22 Sudeste 0 1011.5 -- 86
2020-09-02 07:00:00 14.4 15 Sudeste 19 Sudeste 0 1011 -- 85
2020-09-02 06:00:00 14.4 15 Sudeste 18 Sudeste 0 1011 -- 86
2020-09-02 05:00:00 14.6 14 Sudeste 18 Sudeste 0 1010.8 -- 85
2020-09-02 04:00:00 14.9 12 Sudeste 17 Sudeste 0 1010.9 -- 84
2020-09-02 03:00:00 15.2 12 Sudeste 14 Sudeste 0 1011.1 -- 82
2020-09-02 02:00:00 15.9 10 Sudeste 13 Sudeste 0 1011.1 -- 78
2020-09-02 01:00:00 16.6 9 Sudeste 13 Este 0 1011.3 -- 75
2020-09-02 00:00:00 17.8 8 Este 18 Nordeste 0 1011.4 -- 70
2020-09-01 23:00:00 18.5 7 Norte 21 Nordeste 0 1011.2 -- 68
2020-09-01 22:00:00 18.6 5 Noroeste 25 Nordeste 0 1011 -- 69
2020-09-01 21:00:00 19 9 Norte 26 Nordeste 0 1010.6 -- 69
2020-09-01 20:00:00 19.8 8 Noroeste 24 Nordeste 0 1010.3 -- 66
2020-09-01 19:00:00 20.9 6 Noroeste -- -- 0 1010 -- 65
2020-09-01 18:00:00 21.5 8 Noroeste -- -- 0 1009.4 -- 65
2020-09-01 17:00:00 21.9 9 Norte 31 Nordeste 0 1009.3 -- 65
2020-09-01 16:00:00 21.8 8 Norte 30 Nordeste 0 1009.3 -- 63
2020-09-01 15:00:00 21.6 12 Norte 27 Nordeste 0 1009.4 -- 65
2020-09-01 14:00:00 21.4 13 Nordeste 24 Nordeste 0 1009.6 -- 69
2020-09-01 13:00:00 21.6 5 Sur -- -- 0 1009.7 -- 69
2020-09-01 12:00:00 20.2 6 Noroeste -- -- 0 1009.9 -- 69
2020-09-01 11:00:00 19.2 5 Sudeste 18 Sur 0 1009.6 -- 69
2020-09-01 10:00:00 16.2 15 Sur 20 Sur 0 1009.3 -- 78
2020-09-01 09:00:00 14.3 18 Sur 22 Sur 0 1009.1 -- 81
2020-09-01 08:00:00 14.1 17 Sur 21 Sur 0 1008.9 -- 81
2020-09-01 07:00:00 14.5 9 Sudoeste 15 Sur 0 1008.6 -- 80
2020-09-01 06:00:00 14.7 13 Sur 21 Sur 0 1008.3 -- 78
2020-09-01 05:00:00 14.9 16 Sur 21 Sur 0 1008.5 -- 78
2020-09-01 04:00:00 15.1 18 Sudeste 23 Sudeste 0 1008.8 -- 79
2020-09-01 03:00:00 15.6 16 Sudeste 21 Sur 0 1009.3 -- 78
2020-09-01 02:00:00 15.7 14 Sudeste 21 Sur 0 1009.5 -- 79
2020-09-01 01:00:00 16 14 Sur 18 Sudeste 0 1009.8 -- 79
2020-09-01 00:00:00 16.1 14 Sur 16 Sur 0 1010 -- 79
2020-08-31 23:00:00 16.5 7 Sur 11 Sur 0 1010 -- 74
2020-08-31 22:00:00 19 6 Sudoeste 10 Oeste 0 1010 -- 70
2020-08-31 21:00:00 19.7 6 Este 15 Nordeste 0 1009.5 -- 64
2020-08-31 20:00:00 20.1 9 Nordeste 22 Nordeste 0 1009.4 -- 65
2020-08-31 19:00:00 20.1 12 Este 24 Este 0 1009.4 -- 64
2020-08-31 18:00:00 19.8 13 Nordeste 27 Este 0 1009.8 -- 66
2020-08-31 17:00:00 20.8 16 Este 28 Este 0 1010.2 -- 61
2020-08-31 16:00:00 20.1 14 Nordeste 25 Nordeste 0 1010.9 -- 62
2020-08-31 15:00:00 20.7 12 Nordeste 21 Nordeste 0 1011 -- 61
2020-08-31 14:00:00 20.3 8 Este 15 Este 0 1011.4 -- 60
2020-08-31 13:00:00 19.3 5 Nordeste -- -- 0 1011.7 -- 61
2020-08-31 12:00:00 18.6 3 Oeste 5 Oeste 0 1011.8 -- 64
2020-08-31 11:00:00 17.4 3 Sur 14 Sur 0 1011.8 -- 67
2020-08-31 10:00:00 15 10 Sur 24 Sur 0 1011.6 -- 74
2020-08-31 09:00:00 12.1 18 Sudeste 27 Sudeste 0 1011.4 -- 80
2020-08-31 08:00:00 11.6 22 Sudeste 27 Sudeste 0 1011.3 -- 81
2020-08-31 07:00:00 11.5 19 Sudeste 25 Sur 0 1011.5 -- 82
2020-08-31 06:00:00 11.7 20 Sudeste 25 Sudeste 0 1011.5 -- 82
2020-08-31 05:00:00 12 19 Sudeste 25 Sudeste 0 1011.9 -- 81
2020-08-31 04:00:00 12 17 Sur 24 Sudeste 0 1012.4 -- 82
2020-08-31 03:00:00 12.5 19 Sudeste 24 Sudeste 0 1013 -- 81
2020-08-31 02:00:00 12.7 18 Sudeste 22 Sudeste 0 1013.5 -- 81
2020-08-31 01:00:00 13 17 Sudeste 22 Sudeste 0 1013.7 -- 81
2020-08-31 00:00:00 13.8 14 Sudeste 22 Sudeste 0 1013.8 -- 77
2020-08-30 23:00:00 14.4 12 Sudeste 15 Sudeste 0 1013.8 -- 74
2020-08-30 22:00:00 16.6 9 Este 22 Este 0 1013.3 -- 67
2020-08-30 21:00:00 17.4 10 Nordeste 21 Nordeste 0 1012.9 -- 63
2020-08-30 20:00:00 18.6 9 Norte 27 Nordeste 0 1012.6 -- 62
2020-08-30 19:00:00 18.3 8 Norte 20 Nordeste 0 1012.7 -- 61
2020-08-30 18:00:00 19 8 Nordeste 20 Nordeste 0 1012.7 -- 60
2020-08-30 17:00:00 18.6 9 Nordeste 18 Nordeste 0 1012.8 -- 64
2020-08-30 16:00:00 18.5 6 Nordeste 16 Este 0.2 1013 -- 65
2020-08-30 15:00:00 18.7 6 Sudeste 15 Sudeste 0 1013.1 -- 74
2020-08-30 14:00:00 15.9 10 Sudeste 17 Sudeste 1.2 1013.1 -- 82
2020-08-30 13:00:00 15.5 7 Sur 16 Oeste 0.4 1012.7 -- 82
2020-08-30 12:00:00 14.8 13 Oeste 18 Sur 4.8 1012.6 -- 81
2020-08-30 11:00:00 15.2 9 Sur 22 Sudoeste 0.2 1011.8 -- 80
2020-08-30 10:00:00 14.8 15 Sudoeste 29 Oeste 0.6 1011.2 -- 79
2020-08-30 09:00:00 13.9 12 Sudoeste 22 Sur 0.2 1010.9 -- 81
2020-08-30 08:00:00 13.7 -- -- -- -- 0 1010.6 -- 82
2020-08-30 07:00:00 13.6 15 Sur 18 Sur 0 1010 -- 79
2020-08-30 06:00:00 15.4 9 Sudoeste 28 Noroeste 0 1010.1 -- 69
2020-08-30 05:00:00 16.8 19 Norte 28 Norte 0 1009.9 -- 61
2020-08-30 04:00:00 16.7 20 Noroeste 32 Noroeste 0 1010 -- 61
2020-08-30 03:00:00 16.4 20 Norte 31 Norte 0 1010 -- 66
2020-08-30 02:00:00 16.1 9 Oeste 35 Norte 0 1010.4 -- 74
2020-08-30 01:00:00 16 20 Noroeste 37 Noroeste 0 1010.1 -- 77
2020-08-30 00:00:00 16.2 12 Noroeste -- -- 4 1010.1 -- 78
2020-08-29 23:00:00 17.1 13 Noroeste -- -- 0 1009.8 -- 69
2020-08-29 22:00:00 16.9 7 Sudoeste 40 Noroeste 0 1009.6 -- 70
2020-08-29 21:00:00 17.7 18 Norte 48 Norte 0 1008.8 -- 67
2020-08-29 20:00:00 18.2 27 Norte -- -- 0 1008.4 -- 66
2020-08-29 19:00:00 18.3 2 Sudeste 44 Norte 0 1008.6 -- 66
2020-08-29 18:00:00 18.9 21 Noroeste 37 Noroeste 0 1008 -- 62
2020-08-29 17:00:00 17.8 36 Noroeste 47 Noroeste 0 1007.4 -- 65
2020-08-29 16:00:00 18.2 26 Noroeste 40 Noroeste 0.2 1007.6 -- 66
2020-08-29 15:00:00 17.1 21 Norte 51 Norte 0.2 1007.6 -- 77
2020-08-29 14:00:00 18.2 30 Norte 49 Norte 0 1007.2 -- 70
2020-08-29 13:00:00 16.9 31 Norte 55 Noroeste 0.8 1006.4 -- 81
2020-08-29 12:00:00 17.1 31 Noroeste -- -- 0 1006 -- 84
2020-08-29 11:00:00 16.3 33 Norte 67 Norte 3.6 1005.6 -- 87
2020-08-29 10:00:00 16.4 26 Noroeste 60 Noroeste 0.4 1005.3 -- 80
2020-08-29 09:00:00 16.3 39 Noroeste 58 Noroeste 0 1004.8 -- 74
2020-08-29 08:00:00 15.4 41 Noroeste 57 Noroeste 0.4 1004.4 -- 83
2020-08-29 07:00:00 16 22 Oeste 50 Oeste 1.2 1004.2 -- 83
2020-08-29 06:00:00 16.3 32 Oeste 45 Oeste 0 1003.6 -- 81
2020-08-29 05:00:00 16.4 25 Oeste 42 Oeste 0.8 1004.1 -- 82
2020-08-29 04:00:00 15.8 18 Oeste 42 Oeste 4 1004.6 -- 84
2020-08-29 03:00:00 15.7 28 Oeste 43 Oeste 5 1004.9 -- 84
2020-08-29 02:00:00 15.8 33 Oeste 49 Oeste 6.2 1005 -- 81
2020-08-29 01:00:00 15.7 20 Oeste 42 Oeste 1 1005.4 -- 80
2020-08-29 00:00:00 15.9 26 Oeste 46 Oeste 1 1005.7 -- 77
2020-08-28 23:00:00 17.1 22 Oeste 44 Oeste 0.4 1005.7 -- 70
2020-08-28 22:00:00 18.2 32 Oeste 50 Oeste 0 1005.3 -- 65
2020-08-28 21:00:00 18.5 26 Oeste 52 Oeste 0 1005.1 -- 63
2020-08-28 20:00:00 19.5 22 Oeste 48 Oeste 0 1005.3 -- 60
2020-08-28 19:00:00 19.4 30 Oeste 53 Oeste 0 1005.5 -- 60
2020-08-28 18:00:00 19.5 29 Oeste 51 Oeste 0 1005.6 -- 63
2020-08-28 17:00:00 21.7 22 Oeste 48 Oeste 0 1006 -- 58
2020-08-28 16:00:00 21.7 26 Oeste 45 Oeste 0 1006.1 -- 58
2020-08-28 15:00:00 21.7 26 Oeste 45 Oeste 0 1006.5 -- 61
2020-08-28 14:00:00 21.8 25 Oeste 44 Oeste 0 1006.9 -- 63
2020-08-28 13:00:00 19 28 Oeste 46 Oeste 0.2 1007.4 -- 68
2020-08-28 12:00:00 17.9 21 Oeste 55 Oeste 0 1007.8 -- 74
2020-08-28 11:00:00 19.8 25 Oeste 55 Oeste 0 1006.9 -- 65
2020-08-28 10:00:00 19.2 32 Oeste 46 Oeste 0 1007.2 -- 63
2020-08-28 09:00:00 17.9 30 Oeste 39 Oeste 0 1007.5 -- 70
2020-08-28 08:00:00 17.3 21 Oeste 32 Oeste 0 1007.7 -- 69
2020-08-28 07:00:00 17.4 24 Oeste 36 Oeste 0 1007.5 -- 67
2020-08-28 06:00:00 17.8 33 Oeste 47 Oeste 0 1007.4 -- 71
2020-08-28 05:00:00 18.3 29 Oeste 46 Oeste 0 1007.9 -- 78
2020-08-28 04:00:00 18.6 22 Oeste 43 Oeste 0 1008.1 -- 77
2020-08-28 03:00:00 18.4 21 Oeste 43 Oeste 0 1009 -- 81
2020-08-28 02:00:00 18.7 24 Oeste 44 Noroeste 0.2 1009.5 -- 87
2020-08-28 01:00:00 19 21 Oeste 33 Oeste 0.4 1009.8 -- 89
2020-08-28 00:00:00 19 23 Oeste 38 Oeste 1 1010.2 -- 89
2020-08-27 23:00:00 19.2 27 Oeste 53 Noroeste 0 1010.1 -- 89
2020-08-27 22:00:00 21.4 21 Oeste 37 Noroeste 0 1009.6 -- 82
2020-08-27 21:00:00 22.6 19 Oeste 28 Oeste 0 1009.6 -- 76
2020-08-27 20:00:00 24.2 15 Oeste 20 Oeste 0 1009.4 -- 68
2020-08-27 19:00:00 24.8 9 Oeste 16 Oeste 0 1009.9 -- 69
2020-08-27 18:00:00 25.3 12 Oeste 18 Oeste 0 1010.1 -- 70
2020-08-27 17:00:00 25.7 7 Oeste 18 Oeste 0 1010.4 -- 70
2020-08-27 16:00:00 25.7 11 Oeste 19 Oeste 0 1010.7 -- 71
2020-08-27 15:00:00 24.5 6 Noroeste 9 Noroeste 0 1011 -- 71
2020-08-27 14:00:00 24.4 3 Oeste 12 Oeste 0 1011.4 -- 73
2020-08-27 13:00:00 24.2 8 Oeste 12 Oeste 0 1011.9 -- 75
2020-08-27 12:00:00 23.1 8 Oeste 11 Oeste 0 1012.2 -- 81
2020-08-27 11:00:00 22 5 Oeste 12 Noroeste 0 1012.2 -- 84
2020-08-27 10:00:00 21.3 3 Noroeste 6 Noroeste 0 1011.6 -- 87
2020-08-27 09:00:00 20.2 3 Sudeste 14 Sudeste 0 1011.4 -- 88
2020-08-27 08:00:00 19.5 6 Sur 12 Sudoeste 0 1011.5 -- 87
2020-08-27 07:00:00 20.7 7 Oeste 15 Oeste 0 1011.8 -- 87
2020-08-27 06:00:00 20.7 9 Sudoeste 13 Sudoeste 0 1011.7 -- 87
2020-08-27 05:00:00 19.9 4 Sudoeste 10 Sur 0 1011.9 -- 88
2020-08-27 04:00:00 20.4 3 Sur 12 Sudoeste 0 1012.2 -- 87
2020-08-27 03:00:00 20.9 9 Sudoeste 12 Sudoeste 0 1012.2 -- 88
2020-08-27 02:00:00 20.8 9 Oeste 11 Oeste 0 1012.6 -- 88
2020-08-27 01:00:00 20.9 7 Sudoeste 9 Oeste 0 1012.9 -- 88
2020-08-27 00:00:00 20.7 6 Sudoeste 12 Noroeste 0 1013.2 -- 88
2020-08-26 23:00:00 20.9 3 Sudoeste 10 Sudeste 0 1013.4 -- 88
2020-08-26 22:00:00 21.1 6 Este 14 Este 0 1013.2 -- 88
2020-08-26 21:00:00 21.4 6 Este 11 Este 0 1012.8 -- 87
2020-08-26 20:00:00 21.6 8 Este 12 Nordeste 0 1012.8 -- 86
2020-08-26 19:00:00 22 5 Nordeste 18 Nordeste 0 1013.1 -- 85
2020-08-26 18:00:00 22.1 7 Norte 21 Nordeste 0 1013 -- 85
2020-08-26 17:00:00 22 12 Nordeste 25 Nordeste 0 1012.9 -- 86
2020-08-26 16:00:00 22.2 15 Nordeste 28 Nordeste 0 1013.2 -- 87
2020-08-26 15:00:00 21.6 14 Nordeste 27 Nordeste 0 1013 -- 89
2020-08-26 14:00:00 21.4 7 Norte 26 Nordeste 0 1013.5 -- 90
2020-08-26 13:00:00 21 11 Nordeste 23 Nordeste 0 1013.5 -- 90
2020-08-26 12:00:00 20.8 10 Nordeste 18 Nordeste 0.2 1013.5 -- 91
2020-08-26 11:00:00 20.4 10 Nordeste 18 Nordeste 0 1013.1 -- 90
2020-08-26 10:00:00 20.1 9 Nordeste 18 Nordeste 0.2 1012.8 -- 90
2020-08-26 09:00:00 20 6 Norte 17 Este 0.2 1012.5 -- 90
2020-08-26 08:00:00 20 5 Norte 15 Nordeste 0.2 1012 -- 89
2020-08-26 07:00:00 20.2 4 Oeste 10 Noroeste 0.2 1011.9 -- 89
2020-08-26 06:00:00 20.9 3 Noroeste 7 Oeste 0 1011.8 -- 87
2020-08-26 05:00:00 21 0 Calma 3 Nordeste 0 1011.8 -- 87
2020-08-26 04:00:00 20.9 2 Nordeste 7 Nordeste 0 1011.6 -- 87
2020-08-26 03:00:00 20.8 4 Este 6 Este 0 1011.6 -- 87
2020-08-26 02:00:00 20.8 4 Sudeste 5 Sudeste 0 1011.6 -- 87
2020-08-26 01:00:00 21 3 Oeste 5 Oeste 0 1012.1 -- 86
2020-08-26 00:00:00 21 3 Sur 6 Sur 0 1012.2 -- 87
2020-08-25 23:00:00 21.2 5 Oeste 11 Oeste 0.2 1012.3 -- 87
2020-08-25 22:00:00 21.2 5 Oeste 15 Noroeste 0.2 1011.6 -- 86
2020-08-25 21:00:00 22 6 Oeste 22 Oeste 0 1011 -- 81
2020-08-25 20:00:00 22.8 10 Oeste 16 Oeste 0 1010.6 -- 75
2020-08-25 19:00:00 24.5 8 Oeste 24 Oeste 0 1010.3 -- 70
2020-08-25 18:00:00 26.8 14 Oeste 22 Oeste 0 1009.7 -- 62
2020-08-25 17:00:00 26.2 8 Oeste 21 Oeste 0 1009 -- 65
2020-08-25 16:00:00 26.8 8 Oeste 27 Noroeste 0 1008.5 -- 60
2020-08-25 15:00:00 27 19 Oeste 33 Oeste 0 1008 -- 56
2020-08-25 14:00:00 25.2 14 Oeste 22 Oeste 0 1008.2 -- 61
2020-08-25 13:00:00 24 10 Oeste 18 Noroeste 0 1008.3 -- 63
2020-08-25 12:00:00 23.3 6 Noroeste 10 Norte 0 1008.3 -- 61
2020-08-25 11:00:00 22.5 6 Oeste 15 Sudoeste 0 1007.8 -- 63
2020-08-25 10:00:00 21.2 12 Oeste 17 Oeste 0 1007.6 -- 67
2020-08-25 09:00:00 19 3 Sudoeste 14 Sudeste 0 1007 -- 78
2020-08-25 08:00:00 17 10 Sudeste 15 Sudeste 0 1006.4 -- 81
2020-08-25 07:00:00 18 8 Sudoeste 17 Sudoeste 0 1006.1 -- 79
2020-08-25 06:00:00 19.6 15 Sudoeste 21 Sudoeste 0 1006.4 -- 81
2020-08-25 05:00:00 19.8 15 Oeste 22 Oeste 0 1006.2 -- 79
2020-08-25 04:00:00 19.1 11 Sudoeste 15 Sudoeste 0 1006.2 -- 83
2020-08-25 03:00:00 18.3 11 Sur 17 Sur 0 1006.1 -- 84
2020-08-25 02:00:00 18.6 13 Sudeste 15 Sur 0 1006.1 -- 83
2020-08-25 01:00:00 18.5 12 Sur 17 Sur 0 1006.3 -- 82
2020-08-25 00:00:00 20.5 11 Sudoeste 16 Oeste 0 1006.8 -- 76
2020-08-24 23:00:00 20 9 Sudoeste 11 Sudoeste 0 1007.3 -- 78
2020-08-24 22:00:00 20.5 8 Este 17 Este 0 1007.4 -- 77
2020-08-24 21:00:00 20.9 10 Este 30 Nordeste 0 1007.2 -- 75
2020-08-24 20:00:00 21.1 19 Nordeste 38 Nordeste 0 1007.4 -- 75
2020-08-24 19:00:00 21.5 23 Nordeste 38 Nordeste 0 1007.9 -- 72
2020-08-24 18:00:00 21.8 22 Nordeste 42 Nordeste 0 1008.5 -- 70
2020-08-24 17:00:00 22 23 Nordeste 45 Nordeste 0 1008.9 -- 69
2020-08-24 16:00:00 22.1 24 Nordeste 43 Nordeste 0 1009.5 -- 68
2020-08-24 15:00:00 21.9 24 Nordeste 40 Nordeste 0 1010.3 -- 71
2020-08-24 14:00:00 22.3 16 Nordeste 38 Nordeste 0 1011.2 -- 70
2020-08-24 13:00:00 22.1 17 Nordeste 36 Nordeste 0 1011.8 -- 71
2020-08-24 12:00:00 21.6 12 Nordeste 30 Nordeste 0 1012.7 -- 72
2020-08-24 11:00:00 21.3 14 Nordeste 27 Nordeste 0 1012.5 -- 72
2020-08-24 10:00:00 20.5 8 Este 17 Sudeste 0 1013 -- 74
2020-08-24 09:00:00 18.7 9 Este 15 Este 0 1013 -- 81
2020-08-24 08:00:00 17.6 10 Sudeste 14 Sudeste 0 1013.3 -- 82
2020-08-24 07:00:00 18.4 8 Sudeste 15 Este 0 1013.6 -- 80
2020-08-24 06:00:00 18.6 7 Este 15 Este 0 1013.8 -- 79
2020-08-24 05:00:00 19 9 Este 17 Este 0 1013.8 -- 78
2020-08-24 04:00:00 19.7 9 Nordeste 17 Nordeste 0 1014.4 -- 77
2020-08-24 03:00:00 19.7 10 Nordeste 17 Nordeste 0 1014.5 -- 76
2020-08-24 02:00:00 19.4 9 Este 13 Este 0 1015 -- 75
2020-08-24 01:00:00 19.3 8 Este 15 Este 0 1015.6 -- 75
2020-08-24 00:00:00 19.6 5 Este 15 Nordeste 0 1015.7 -- 74
2020-08-23 23:00:00 19.9 10 Nordeste 20 Este 0 1016.1 -- 72
2020-08-23 22:00:00 19.9 13 Este 24 Este 0 1015.8 -- 69
2020-08-23 21:00:00 20.4 13 Este 21 Este 0 1015.8 -- 70
2020-08-23 20:00:00 20.9 11 Nordeste 22 Nordeste 0 1016.1 -- 69
2020-08-23 19:00:00 21.2 10 Nordeste 23 Nordeste 0 1016.1 -- 68
2020-08-23 18:00:00 21.6 13 Nordeste 24 Nordeste 0 1016.1 -- 68
2020-08-23 17:00:00 21.8 11 Nordeste 26 Nordeste 0 1016.5 -- 66
2020-08-23 16:00:00 22.4 13 Nordeste 25 Nordeste 0 1016.7 -- 67
2020-08-23 15:00:00 23 8 Norte 23 Nordeste 0 1016.9 -- 68
2020-08-23 14:00:00 22.6 8 Nordeste 20 Norte 0 1017.1 -- 70
2020-08-23 13:00:00 21.9 9 Nordeste 17 Nordeste 0 1017.3 -- 72
2020-08-23 12:00:00 21.8 3 Norte 9 Oeste 0 1017.6 -- 71
2020-08-23 11:00:00 20.3 3 Nordeste 8 Nordeste 0 1017.7 -- 75
2020-08-23 10:00:00 19.4 4 Sudeste 13 Sudeste 0 1017.6 -- 78
2020-08-23 09:00:00 16.3 12 Sudeste 19 Sur 0 1017.6 -- 83
2020-08-23 08:00:00 14.9 15 Sur 18 Sudeste 0 1017.3 -- 84
2020-08-23 07:00:00 15.3 15 Sudeste 19 Sur 0 1016.8 -- 84
2020-08-23 06:00:00 15.5 15 Sur 17 Sur 0 1017 -- 83
2020-08-23 05:00:00 16 12 Sur 14 Sudeste 0 1017.3 -- 82
2020-08-23 04:00:00 16.3 12 Sur 14 Sudeste 0 1017.3 -- 81
2020-08-23 03:00:00 17 10 Sur 15 Sudeste 0 1017.7 -- 78
2020-08-23 02:00:00 18.3 7 Sudeste 17 Sudeste 0 1018 -- 75
2020-08-23 01:00:00 18.1 13 Sudeste 15 Sudeste 0 1017.9 -- 78
2020-08-23 00:00:00 18.5 9 Sudeste 11 Sudeste 0 1018.3 -- 77